Bo Mineral, Puerto Rico
Current Conditions -  °F | °C
As of 11:50 AM on Saturday 22 Nov 2014 (Local Time) from TJBQ Reporting Station
Overcast Overcast  
Wind Chill: 82°   Ceiling: 9000
Heat Index: 88°   Visibility: 10mi
Dew Point: 73°   Wind: 13mph
Humidity: 74%   Direction: 100°E
Pressure: 30.04"   Gusts: 21mph
Location:  18.2038°N, 67.1453°W
Report Text: TJBQ 221550Z 10011G18KT 10SM OVC090 28/23 A3004 RMK LTG DSNT SE AND S - RWY08 ATIS S
Loading
Personal Weather Stations






























Interactive Weather Map New forecast layout! Learn more

10-Day Weather Forecast

Advertisements
Track Severe Weather on mobile